sensor_id;sensor_type;location;lat;lon;timestamp;temperature;humidity
30594;DHT22;33199;47.590;8.300;2022-10-16T00:01:59;17.80;73.20
30594;DHT22;33199;47.590;8.300;2022-10-16T00:04:24;17.80;73.20
30594;DHT22;33199;47.590;8.300;2022-10-16T00:06:50;17.80;73.10
30594;DHT22;33199;47.590;8.300;2022-10-16T00:09:16;17.80;73.20
30594;DHT22;33199;47.590;8.300;2022-10-16T00:11:41;17.80;73.10
30594;DHT22;33199;47.590;8.300;2022-10-16T00:14:11;17.80;73.00
30594;DHT22;33199;47.590;8.300;2022-10-16T00:16:37;17.80;73.20
30594;DHT22;33199;47.590;8.300;2022-10-16T00:19:03;17.80;73.20
30594;DHT22;33199;47.590;8.300;2022-10-16T00:21:30;17.80;73.10
30594;DHT22;33199;47.590;8.300;2022-10-16T00:24:02;17.80;74.00
30594;DHT22;33199;47.590;8.300;2022-10-16T00:26:30;17.80;73.30
30594;DHT22;33199;47.590;8.300;2022-10-16T00:28:56;17.70;73.20
30594;DHT22;33199;47.590;8.300;2022-10-16T00:31:23;17.80;73.30
30594;DHT22;33199;47.590;8.300;2022-10-16T00:33:49;17.80;73.20
30594;DHT22;33199;47.590;8.300;2022-10-16T00:36:17;17.80;73.20
30594;DHT22;33199;47.590;8.300;2022-10-16T00:38:43;17.80;73.20
30594;DHT22;33199;47.590;8.300;2022-10-16T00:41:14;17.70;73.00
30594;DHT22;33199;47.590;8.300;2022-10-16T00:46:41;17.80;73.00
30594;DHT22;33199;47.590;8.300;2022-10-16T00:49:16;17.80;72.90
30594;DHT22;33199;47.590;8.300;2022-10-16T00:51:46;17.80;73.20
30594;DHT22;33199;47.590;8.300;2022-10-16T00:54:18;17.70;73.00
30594;DHT22;33199;47.590;8.300;2022-10-16T00:56:45;17.70;73.00
30594;DHT22;33199;47.590;8.300;2022-10-16T00:59:18;17.70;73.10
30594;DHT22;33199;47.590;8.300;2022-10-16T01:01:44;17.70;73.00
30594;DHT22;33199;47.590;8.300;2022-10-16T01:04:10;17.70;72.90
30594;DHT22;33199;47.590;8.300;2022-10-16T01:12:41;17.70;73.00
30594;DHT22;33199;47.590;8.300;2022-10-16T01:15:10;17.70;73.00
30594;DHT22;33199;47.590;8.300;2022-10-16T01:17:52;17.70;73.10
30594;DHT22;33199;47.590;8.300;2022-10-16T01:20:29;17.70;73.00
30594;DHT22;33199;47.590;8.300;2022-10-16T01:23:10;17.70;73.20
30594;DHT22;33199;47.590;8.300;2022-10-16T01:31:15;17.70;72.80
30594;DHT22;33199;47.590;8.300;2022-10-16T01:33:44;17.70;73.00
30594;DHT22;33199;47.590;8.300;2022-10-16T01:36:18;17.70;73.20
30594;DHT22;33199;47.590;8.300;2022-10-16T01:38:48;17.70;74.00
30594;DHT22;33199;47.590;8.300;2022-10-16T01:41:21;17.70;73.10
30594;DHT22;33199;47.590;8.300;2022-10-16T01:43:56;17.70;73.20
30594;DHT22;33199;47.590;8.300;2022-10-16T01:46:23;17.70;73.10
30594;DHT22;33199;47.590;8.300;2022-10-16T01:48:51;17.70;73.20
30594;DHT22;33199;47.590;8.300;2022-10-16T01:51:18;17.70;73.20
30594;DHT22;33199;47.590;8.300;2022-10-16T01:53:49;17.70;73.30
30594;DHT22;33199;47.590;8.300;2022-10-16T01:56:17;17.70;73.20
30594;DHT22;33199;47.590;8.300;2022-10-16T01:58:48;17.70;73.30
30594;DHT22;33199;47.590;8.300;2022-10-16T02:01:19;17.70;73.10
30594;DHT22;33199;47.590;8.300;2022-10-16T02:03:51;17.70;73.10
30594;DHT22;33199;47.590;8.300;2022-10-16T02:06:18;17.70;73.20
30594;DHT22;33199;47.590;8.300;2022-10-16T02:08:43;17.70;73.10
30594;DHT22;33199;47.590;8.300;2022-10-16T02:11:10;17.70;73.20
30594;DHT22;33199;47.590;8.300;2022-10-16T02:13:41;17.70;73.20
30594;DHT22;33199;47.590;8.300;2022-10-16T02:16:11;17.70;73.10
30594;DHT22;33199;47.590;8.300;2022-10-16T02:18:37;17.70;73.20
30594;DHT22;33199;47.590;8.300;2022-10-16T02:21:26;17.70;73.20
30594;DHT22;33199;47.590;8.300;2022-10-16T02:27:09;17.70;73.10
30594;DHT22;33199;47.590;8.300;2022-10-16T02:29:40;17.70;73.40
30594;DHT22;33199;47.590;8.300;2022-10-16T02:32:10;17.60;73.30
30594;DHT22;33199;47.590;8.300;2022-10-16T02:34:39;17.60;73.30
30594;DHT22;33199;47.590;8.300;2022-10-16T02:37:05;17.60;73.30
30594;DHT22;33199;47.590;8.300;2022-10-16T02:39:32;17.60;73.20
30594;DHT22;33199;47.590;8.300;2022-10-16T02:41:58;17.60;73.10
30594;DHT22;33199;47.590;8.300;2022-10-16T02:44:23;17.60;73.20
30594;DHT22;33199;47.590;8.300;2022-10-16T02:46:49;17.70;73.40
30594;DHT22;33199;47.590;8.300;2022-10-16T02:49:14;17.60;73.20
30594;DHT22;33199;47.590;8.300;2022-10-16T02:51:40;17.60;73.40
30594;DHT22;33199;47.590;8.300;2022-10-16T02:54:06;17.60;73.10
30594;DHT22;33199;47.590;8.300;2022-10-16T02:56:31;17.70;73.40
30594;DHT22;33199;47.590;8.300;2022-10-16T02:58:57;17.60;73.20
30594;DHT22;33199;47.590;8.300;2022-10-16T03:01:23;17.60;73.30
30594;DHT22;33199;47.590;8.300;2022-10-16T03:03:49;17.70;73.20
30594;DHT22;33199;47.590;8.300;2022-10-16T03:06:14;17.60;73.30
30594;DHT22;33199;47.590;8.300;2022-10-16T03:08:40;17.70;73.20
30594;DHT22;33199;47.590;8.300;2022-10-16T03:11:06;17.70;73.30
30594;DHT22;33199;47.590;8.300;2022-10-16T03:13:31;17.60;73.20
30594;DHT22;33199;47.590;8.300;2022-10-16T03:15:57;17.60;73.30
30594;DHT22;33199;47.590;8.300;2022-10-16T03:18:22;17.60;73.20
30594;DHT22;33199;47.590;8.300;2022-10-16T03:20:48;17.60;73.10
30594;DHT22;33199;47.590;8.300;2022-10-16T03:23:13;17.60;73.10
30594;DHT22;33199;47.590;8.300;2022-10-16T03:25:39;17.60;73.10
30594;DHT22;33199;47.590;8.300;2022-10-16T03:28:05;17.60;73.20
30594;DHT22;33199;47.590;8.300;2022-10-16T03:30:31;17.60;73.30
30594;DHT22;33199;47.590;8.300;2022-10-16T03:32:56;17.60;73.30
30594;DHT22;33199;47.590;8.300;2022-10-16T03:35:23;17.60;73.40
30594;DHT22;33199;47.590;8.300;2022-10-16T03:37:49;17.60;73.20
30594;DHT22;33199;47.590;8.300;2022-10-16T03:40:15;17.60;73.10
30594;DHT22;33199;47.590;8.300;2022-10-16T03:42:43;17.60;73.30
30594;DHT22;33199;47.590;8.300;2022-10-16T03:45:09;17.60;73.20
30594;DHT22;33199;47.590;8.300;2022-10-16T03:47:35;17.60;73.20
30594;DHT22;33199;47.590;8.300;2022-10-16T03:50:00;17.60;73.40
30594;DHT22;33199;47.590;8.300;2022-10-16T03:52:26;17.60;73.40
30594;DHT22;33199;47.590;8.300;2022-10-16T03:54:52;17.60;73.30
30594;DHT22;33199;47.590;8.300;2022-10-16T03:57:17;17.60;73.30
30594;DHT22;33199;47.590;8.300;2022-10-16T03:59:43;17.60;73.30
30594;DHT22;33199;47.590;8.300;2022-10-16T04:02:09;17.60;73.30
30594;DHT22;33199;47.590;8.300;2022-10-16T04:04:35;17.60;73.20
30594;DHT22;33199;47.590;8.300;2022-10-16T04:07:01;17.60;73.20
30594;DHT22;33199;47.590;8.300;2022-10-16T04:09:27;17.60;73.30
30594;DHT22;33199;47.590;8.300;2022-10-16T04:11:52;17.60;74.00
30594;DHT22;33199;47.590;8.300;2022-10-16T04:14:18;17.60;73.30
30594;DHT22;33199;47.590;8.300;2022-10-16T04:16:44;17.60;73.20
30594;DHT22;33199;47.590;8.300;2022-10-16T04:19:10;17.60;73.40
30594;DHT22;33199;47.590;8.300;2022-10-16T04:21:36;17.60;73.30
30594;DHT22;33199;47.590;8.300;2022-10-16T04:24:02;17.60;73.20
30594;DHT22;33199;47.590;8.300;2022-10-16T04:26:28;17.60;73.20
30594;DHT22;33199;47.590;8.300;2022-10-16T04:28:54;17.60;73.20
30594;DHT22;33199;47.590;8.300;2022-10-16T04:31:20;17.60;73.20
30594;DHT22;33199;47.590;8.300;2022-10-16T04:33:46;17.60;73.40
30594;DHT22;33199;47.590;8.300;2022-10-16T04:36:11;17.60;73.20
30594;DHT22;33199;47.590;8.300;2022-10-16T04:38:38;17.60;73.20
30594;DHT22;33199;47.590;8.300;2022-10-16T04:41:05;17.60;73.20
30594;DHT22;33199;47.590;8.300;2022-10-16T04:43:31;17.60;73.30
30594;DHT22;33199;47.590;8.300;2022-10-16T04:45:57;17.60;73.30
30594;DHT22;33199;47.590;8.300;2022-10-16T04:48:22;17.60;73.20
30594;DHT22;33199;47.590;8.300;2022-10-16T04:50:48;17.60;73.30
30594;DHT22;33199;47.590;8.300;2022-10-16T04:53:14;17.60;73.20
30594;DHT22;33199;47.590;8.300;2022-10-16T04:55:41;17.60;73.30
30594;DHT22;33199;47.590;8.300;2022-10-16T04:58:06;17.60;73.20
30594;DHT22;33199;47.590;8.300;2022-10-16T05:00:32;17.50;73.20
30594;DHT22;33199;47.590;8.300;2022-10-16T05:02:58;17.60;73.20
30594;DHT22;33199;47.590;8.300;2022-10-16T05:05:26;17.60;73.30
30594;DHT22;33199;47.590;8.300;2022-10-16T05:07:51;17.50;73.30
30594;DHT22;33199;47.590;8.300;2022-10-16T05:10:18;17.50;73.20
30594;DHT22;33199;47.590;8.300;2022-10-16T05:12:43;17.50;73.20
30594;DHT22;33199;47.590;8.300;2022-10-16T05:15:09;17.50;73.10
30594;DHT22;33199;47.590;8.300;2022-10-16T05:17:35;17.50;73.30
30594;DHT22;33199;47.590;8.300;2022-10-16T05:20:00;17.50;73.10
30594;DHT22;33199;47.590;8.300;2022-10-16T05:22:26;17.50;73.30
30594;DHT22;33199;47.590;8.300;2022-10-16T05:24:51;17.60;73.20
30594;DHT22;33199;47.590;8.300;2022-10-16T05:27:17;17.50;73.20
30594;DHT22;33199;47.590;8.300;2022-10-16T05:29:46;17.50;73.30
30594;DHT22;33199;47.590;8.300;2022-10-16T05:32:13;17.50;73.30
30594;DHT22;33199;47.590;8.300;2022-10-16T05:34:39;17.60;73.30
30594;DHT22;33199;47.590;8.300;2022-10-16T05:37:05;17.60;73.20
30594;DHT22;33199;47.590;8.300;2022-10-16T05:39:30;17.50;73.20
30594;DHT22;33199;47.590;8.300;2022-10-16T05:41:56;17.50;73.20
30594;DHT22;33199;47.590;8.300;2022-10-16T05:44:21;17.50;73.10
30594;DHT22;33199;47.590;8.300;2022-10-16T05:46:47;17.50;73.20
30594;DHT22;33199;47.590;8.300;2022-10-16T05:49:12;17.50;73.20
30594;DHT22;33199;47.590;8.300;2022-10-16T05:51:38;17.50;73.20
30594;DHT22;33199;47.590;8.300;2022-10-16T05:54:04;17.50;73.20
30594;DHT22;33199;47.590;8.300;2022-10-16T05:56:29;17.50;73.10
30594;DHT22;33199;47.590;8.300;2022-10-16T05:58:55;17.50;73.20
30594;DHT22;33199;47.590;8.300;2022-10-16T06:01:20;17.50;73.20
30594;DHT22;33199;47.590;8.300;2022-10-16T06:03:52;17.50;73.20
30594;DHT22;33199;47.590;8.300;2022-10-16T06:06:22;17.50;73.20
30594;DHT22;33199;47.590;8.300;2022-10-16T06:08:49;17.50;73.20
30594;DHT22;33199;47.590;8.300;2022-10-16T06:11:24;17.50;73.10
30594;DHT22;33199;47.590;8.300;2022-10-16T06:13:51;17.50;73.30
30594;DHT22;33199;47.590;8.300;2022-10-16T06:16:17;17.50;73.20
30594;DHT22;33199;47.590;8.300;2022-10-16T06:18:42;17.60;73.30
30594;DHT22;33199;47.590;8.300;2022-10-16T06:21:10;17.50;73.30
30594;DHT22;33199;47.590;8.300;2022-10-16T06:23:37;17.50;73.20
30594;DHT22;33199;47.590;8.300;2022-10-16T06:26:10;17.50;73.20
30594;DHT22;33199;47.590;8.300;2022-10-16T06:28:37;17.50;73.20
30594;DHT22;33199;47.590;8.300;2022-10-16T06:31:04;17.50;73.30
30594;DHT22;33199;47.590;8.300;2022-10-16T06:33:30;17.50;73.10
30594;DHT22;33199;47.590;8.300;2022-10-16T06:36:03;17.50;73.20
30594;DHT22;33199;47.590;8.300;2022-10-16T06:38:30;17.50;73.30
30594;DHT22;33199;47.590;8.300;2022-10-16T06:40:56;17.50;73.20
30594;DHT22;33199;47.590;8.300;2022-10-16T06:43:22;17.50;73.30
30594;DHT22;33199;47.590;8.300;2022-10-16T06:45:54;17.50;73.20
30594;DHT22;33199;47.590;8.300;2022-10-16T06:48:21;17.50;73.20
30594;DHT22;33199;47.590;8.300;2022-10-16T06:50:57;17.50;73.20
30594;DHT22;33199;47.590;8.300;2022-10-16T06:53:23;17.50;73.10
30594;DHT22;33199;47.590;8.300;2022-10-16T06:55:49;17.50;73.20
30594;DHT22;33199;47.590;8.300;2022-10-16T06:58:15;17.50;73.30
30594;DHT22;33199;47.590;8.300;2022-10-16T07:00:40;17.50;73.30
30594;DHT22;33199;47.590;8.300;2022-10-16T07:03:06;17.50;73.20
30594;DHT22;33199;47.590;8.300;2022-10-16T07:05:31;17.50;73.20
30594;DHT22;33199;47.590;8.300;2022-10-16T07:07:57;17.50;73.30
30594;DHT22;33199;47.590;8.300;2022-10-16T07:10:22;17.50;73.20
30594;DHT22;33199;47.590;8.300;2022-10-16T07:12:49;17.40;73.20
30594;DHT22;33199;47.590;8.300;2022-10-16T07:15:15;17.40;73.10
30594;DHT22;33199;47.590;8.300;2022-10-16T07:17:40;17.50;73.10
30594;DHT22;33199;47.590;8.300;2022-10-16T07:20:06;17.40;73.20
30594;DHT22;33199;47.590;8.300;2022-10-16T07:22:32;17.50;73.10
30594;DHT22;33199;47.590;8.300;2022-10-16T07:24:58;17.50;73.20
30594;DHT22;33199;47.590;8.300;2022-10-16T07:27:24;17.40;73.20
30594;DHT22;33199;47.590;8.300;2022-10-16T07:29:49;17.50;73.10
30594;DHT22;33199;47.590;8.300;2022-10-16T07:32:15;17.50;73.10
30594;DHT22;33199;47.590;8.300;2022-10-16T07:34:41;17.50;73.00
30594;DHT22;33199;47.590;8.300;2022-10-16T07:37:07;17.40;73.10
30594;DHT22;33199;47.590;8.300;2022-10-16T07:39:33;17.40;73.00
30594;DHT22;33199;47.590;8.300;2022-10-16T07:41:59;17.50;73.20
30594;DHT22;33199;47.590;8.300;2022-10-16T07:44:24;17.50;73.10
30594;DHT22;33199;47.590;8.300;2022-10-16T07:46:50;17.40;73.90
30594;DHT22;33199;47.590;8.300;2022-10-16T07:49:15;17.40;73.00
30594;DHT22;33199;47.590;8.300;2022-10-16T07:51:41;17.40;73.00
30594;DHT22;33199;47.590;8.300;2022-10-16T07:54:08;17.40;73.20
30594;DHT22;33199;47.590;8.300;2022-10-16T07:56:34;17.40;73.00
30594;DHT22;33199;47.590;8.300;2022-10-16T07:59:00;17.40;73.00
30594;DHT22;33199;47.590;8.300;2022-10-16T08:01:25;17.50;73.10
30594;DHT22;33199;47.590;8.300;2022-10-16T08:03:51;17.50;73.00
30594;DHT22;33199;47.590;8.300;2022-10-16T08:06:19;17.40;72.90
30594;DHT22;33199;47.590;8.300;2022-10-16T08:08:45;17.40;72.90
30594;DHT22;33199;47.590;8.300;2022-10-16T08:11:10;17.40;72.90
30594;DHT22;33199;47.590;8.300;2022-10-16T08:13:36;17.40;72.90
30594;DHT22;33199;47.590;8.300;2022-10-16T08:16:03;17.40;72.90
30594;DHT22;33199;47.590;8.300;2022-10-16T08:18:34;17.40;72.90
30594;DHT22;33199;47.590;8.300;2022-10-16T08:21:00;17.40;72.90
30594;DHT22;33199;47.590;8.300;2022-10-16T08:23:27;17.40;72.80
30594;DHT22;33199;47.590;8.300;2022-10-16T08:25:53;17.40;72.80
30594;DHT22;33199;47.590;8.300;2022-10-16T08:28:20;17.40;72.90
30594;DHT22;33199;47.590;8.300;2022-10-16T08:30:45;17.40;72.80
30594;DHT22;33199;47.590;8.300;2022-10-16T08:33:11;17.40;72.80
30594;DHT22;33199;47.590;8.300;2022-10-16T08:35:36;17.40;73.60
30594;DHT22;33199;47.590;8.300;2022-10-16T08:38:06;17.40;75.40
30594;DHT22;33199;47.590;8.300;2022-10-16T08:40:33;17.30;76.30
30594;DHT22;33199;47.590;8.300;2022-10-16T08:46:25;17.30;76.40
30594;DHT22;33199;47.590;8.300;2022-10-16T08:48:57;17.20;76.10
30594;DHT22;33199;47.590;8.300;2022-10-16T08:51:27;17.20;76.30
30594;DHT22;33199;47.590;8.300;2022-10-16T08:56:27;17.30;76.40
30594;DHT22;33199;47.590;8.300;2022-10-16T08:58:54;17.30;76.20
30594;DHT22;33199;47.590;8.300;2022-10-16T09:01:21;17.30;76.10
30594;DHT22;33199;47.590;8.300;2022-10-16T09:04:26;17.30;75.90
30594;DHT22;33199;47.590;8.300;2022-10-16T09:10:20;17.30;75.20
30594;DHT22;33199;47.590;8.300;2022-10-16T09:13:08;17.30;75.00
30594;DHT22;33199;47.590;8.300;2022-10-16T09:15:40;17.40;74.80
30594;DHT22;33199;47.590;8.300;2022-10-16T09:18:26;17.30;74.50
30594;DHT22;33199;47.590;8.300;2022-10-16T09:21:09;17.40;74.40
30594;DHT22;33199;47.590;8.300;2022-10-16T09:23:37;17.40;74.20
30594;DHT22;33199;47.590;8.300;2022-10-16T09:26:04;17.30;73.90
30594;DHT22;33199;47.590;8.300;2022-10-16T09:28:30;17.40;74.00
30594;DHT22;33199;47.590;8.300;2022-10-16T09:30:56;17.40;73.90
30594;DHT22;33199;47.590;8.300;2022-10-16T09:33:35;17.30;73.80
30594;DHT22;33199;47.590;8.300;2022-10-16T09:36:03;17.40;73.80
30594;DHT22;33199;47.590;8.300;2022-10-16T09:38:35;17.40;73.80
30594;DHT22;33199;47.590;8.300;2022-10-16T09:43:41;17.40;73.70
30594;DHT22;33199;47.590;8.300;2022-10-16T09:46:19;17.40;73.70
30594;DHT22;33199;47.590;8.300;2022-10-16T09:48:50;17.40;73.50
30594;DHT22;33199;47.590;8.300;2022-10-16T09:51:28;17.40;73.50
30594;DHT22;33199;47.590;8.300;2022-10-16T09:54:12;17.40;73.40
30594;DHT22;33199;47.590;8.300;2022-10-16T09:56:38;17.40;73.50
30594;DHT22;33199;47.590;8.300;2022-10-16T09:59:16;17.40;73.50
30594;DHT22;33199;47.590;8.300;2022-10-16T10:01:53;17.40;73.30
30594;DHT22;33199;47.590;8.300;2022-10-16T10:04:19;17.40;73.40
30594;DHT22;33199;47.590;8.300;2022-10-16T10:06:53;17.40;73.30
30594;DHT22;33199;47.590;8.300;2022-10-16T10:09:24;17.40;73.40
30594;DHT22;33199;47.590;8.300;2022-10-16T10:14:23;17.40;73.30
30594;DHT22;33199;47.590;8.300;2022-10-16T10:16:50;17.40;73.20
30594;DHT22;33199;47.590;8.300;2022-10-16T10:19:27;17.40;73.50
30594;DHT22;33199;47.590;8.300;2022-10-16T10:21:52;17.40;73.30
30594;DHT22;33199;47.590;8.300;2022-10-16T10:24:19;17.40;73.20
30594;DHT22;33199;47.590;8.300;2022-10-16T10:27:16;17.40;73.30
30594;DHT22;33199;47.590;8.300;2022-10-16T10:32:52;17.40;73.40
30594;DHT22;33199;47.590;8.300;2022-10-16T10:40:22;17.40;73.40
30594;DHT22;33199;47.590;8.300;2022-10-16T10:42:56;17.40;73.30
30594;DHT22;33199;47.590;8.300;2022-10-16T10:51:36;17.40;73.40
30594;DHT22;33199;47.590;8.300;2022-10-16T10:54:23;17.40;73.30
30594;DHT22;33199;47.590;8.300;2022-10-16T10:57:16;17.40;73.30
30594;DHT22;33199;47.590;8.300;2022-10-16T11:00:21;17.40;73.40
30594;DHT22;33199;47.590;8.300;2022-10-16T11:08:19;17.50;73.50
30594;DHT22;33199;47.590;8.300;2022-10-16T11:15:52;17.40;73.30
30594;DHT22;33199;47.590;8.300;2022-10-16T11:18:22;17.50;73.30
30594;DHT22;33199;47.590;8.300;2022-10-16T11:20:56;17.50;73.30
30594;DHT22;33199;47.590;8.300;2022-10-16T11:23:34;17.50;73.50
30594;DHT22;33199;47.590;8.300;2022-10-16T11:26:08;17.50;73.30
30594;DHT22;33199;47.590;8.300;2022-10-16T11:28:45;17.50;73.30
30594;DHT22;33199;47.590;8.300;2022-10-16T11:31:26;17.50;73.40
30594;DHT22;33199;47.590;8.300;2022-10-16T11:34:04;17.50;73.40
30594;DHT22;33199;47.590;8.300;2022-10-16T11:36:38;17.50;73.50
30594;DHT22;33199;47.590;8.300;2022-10-16T11:42:21;17.50;73.40
30594;DHT22;33199;47.590;8.300;2022-10-16T11:49:59;17.50;73.70
30594;DHT22;33199;47.590;8.300;2022-10-16T11:52:30;17.50;73.70
30594;DHT22;33199;47.590;8.300;2022-10-16T11:55:05;17.50;73.60
30594;DHT22;33199;47.590;8.300;2022-10-16T11:57:40;17.50;73.80
30594;DHT22;33199;47.590;8.300;2022-10-16T12:08:04;17.50;73.60
30594;DHT22;33199;47.590;8.300;2022-10-16T12:10:31;17.60;73.90
30594;DHT22;33199;47.590;8.300;2022-10-16T12:13:02;17.60;73.90
30594;DHT22;33199;47.590;8.300;2022-10-16T12:15:31;17.60;74.60
30594;DHT22;33199;47.590;8.300;2022-10-16T12:17:57;17.60;73.70
30594;DHT22;33199;47.590;8.300;2022-10-16T12:20:31;17.60;73.80
30594;DHT22;33199;47.590;8.300;2022-10-16T12:23:07;17.60;73.70
30594;DHT22;33199;47.590;8.300;2022-10-16T12:25:43;17.60;73.70
30594;DHT22;33199;47.590;8.300;2022-10-16T12:28:21;17.60;73.70
30594;DHT22;33199;47.590;8.300;2022-10-16T12:30:54;17.60;73.70
30594;DHT22;33199;47.590;8.300;2022-10-16T12:33:30;17.60;73.70
30594;DHT22;33199;47.590;8.300;2022-10-16T12:35:59;17.60;73.80
30594;DHT22;33199;47.590;8.300;2022-10-16T12:38:45;17.60;73.70
30594;DHT22;33199;47.590;8.300;2022-10-16T12:41:11;17.70;73.60
30594;DHT22;33199;47.590;8.300;2022-10-16T12:43:45;17.70;73.60
30594;DHT22;33199;47.590;8.300;2022-10-16T12:48:42;17.70;73.50
30594;DHT22;33199;47.590;8.300;2022-10-16T12:51:34;17.70;73.40
30594;DHT22;33199;47.590;8.300;2022-10-16T12:54:00;17.70;73.30
30594;DHT22;33199;47.590;8.300;2022-10-16T13:05:19;17.80;73.30
30594;DHT22;33199;47.590;8.300;2022-10-16T13:10:40;17.80;73.50
30594;DHT22;33199;47.590;8.300;2022-10-16T13:13:27;17.80;73.50
30594;DHT22;33199;47.590;8.300;2022-10-16T13:26:24;17.80;73.30
30594;DHT22;33199;47.590;8.300;2022-10-16T13:28:51;17.80;73.30
30594;DHT22;33199;47.590;8.300;2022-10-16T13:31:21;17.80;73.20
30594;DHT22;33199;47.590;8.300;2022-10-16T13:33:50;17.90;73.40
30594;DHT22;33199;47.590;8.300;2022-10-16T13:36:43;17.80;73.30
30594;DHT22;33199;47.590;8.300;2022-10-16T13:39:13;17.90;73.20
30594;DHT22;33199;47.590;8.300;2022-10-16T13:41:39;17.90;73.20
30594;DHT22;33199;47.590;8.300;2022-10-16T13:44:16;17.90;73.20
30594;DHT22;33199;47.590;8.300;2022-10-16T13:46:43;17.90;73.20
30594;DHT22;33199;47.590;8.300;2022-10-16T13:49:16;17.90;73.20
30594;DHT22;33199;47.590;8.300;2022-10-16T13:51:54;17.90;73.20
30594;DHT22;33199;47.590;8.300;2022-10-16T13:54:20;17.90;73.30
30594;DHT22;33199;47.590;8.300;2022-10-16T13:56:46;17.90;73.30
30594;DHT22;33199;47.590;8.300;2022-10-16T13:59:44;17.90;73.20
30594;DHT22;33199;47.590;8.300;2022-10-16T14:04:47;17.90;73.30
30594;DHT22;33199;47.590;8.300;2022-10-16T14:07:18;17.90;73.20
30594;DHT22;33199;47.590;8.300;2022-10-16T14:09:48;17.90;73.30
30594;DHT22;33199;47.590;8.300;2022-10-16T14:12:15;17.90;73.30
30594;DHT22;33199;47.590;8.300;2022-10-16T14:14:43;17.90;73.30
30594;DHT22;33199;47.590;8.300;2022-10-16T14:17:19;17.90;73.20
30594;DHT22;33199;47.590;8.300;2022-10-16T14:19:50;17.90;73.30
30594;DHT22;33199;47.590;8.300;2022-10-16T14:24:47;18.00;73.30
30594;DHT22;33199;47.590;8.300;2022-10-16T14:27:36;18.00;73.20
30594;DHT22;33199;47.590;8.300;2022-10-16T14:30:10;18.00;73.30
30594;DHT22;33199;47.590;8.300;2022-10-16T14:32:40;18.00;73.30
30594;DHT22;33199;47.590;8.300;2022-10-16T14:35:36;18.00;73.20
30594;DHT22;33199;47.590;8.300;2022-10-16T14:38:04;18.00;73.20
30594;DHT22;33199;47.590;8.300;2022-10-16T14:40:33;18.00;73.20
30594;DHT22;33199;47.590;8.300;2022-10-16T14:43:00;18.00;73.20
30594;DHT22;33199;47.590;8.300;2022-10-16T14:45:28;18.10;73.30
30594;DHT22;33199;47.590;8.300;2022-10-16T14:47:55;18.10;73.30
30594;DHT22;33199;47.590;8.300;2022-10-16T14:50:22;18.10;73.30
30594;DHT22;33199;47.590;8.300;2022-10-16T14:52:48;18.00;73.20
30594;DHT22;33199;47.590;8.300;2022-10-16T14:55:14;18.10;73.40
30594;DHT22;33199;47.590;8.300;2022-10-16T14:57:40;18.10;73.30
30594;DHT22;33199;47.590;8.300;2022-10-16T15:00:25;18.10;73.40
30594;DHT22;33199;47.590;8.300;2022-10-16T15:02:51;18.10;73.30
30594;DHT22;33199;47.590;8.300;2022-10-16T15:05:26;18.10;73.30
30594;DHT22;33199;47.590;8.300;2022-10-16T15:07:53;18.10;73.20
30594;DHT22;33199;47.590;8.300;2022-10-16T15:10:21;18.10;73.30
30594;DHT22;33199;47.590;8.300;2022-10-16T15:12:47;18.10;73.30
30594;DHT22;33199;47.590;8.300;2022-10-16T15:17:41;18.10;73.30
30594;DHT22;33199;47.590;8.300;2022-10-16T15:20:07;18.10;73.30
30594;DHT22;33199;47.590;8.300;2022-10-16T15:22:32;18.10;73.30
30594;DHT22;33199;47.590;8.300;2022-10-16T15:24:58;18.10;73.30
30594;DHT22;33199;47.590;8.300;2022-10-16T15:27:23;18.10;73.30
30594;DHT22;33199;47.590;8.300;2022-10-16T15:29:49;18.10;73.40
30594;DHT22;33199;47.590;8.300;2022-10-16T15:32:15;18.10;73.30
30594;DHT22;33199;47.590;8.300;2022-10-16T15:34:40;18.10;73.30
30594;DHT22;33199;47.590;8.300;2022-10-16T15:37:06;18.10;73.30
30594;DHT22;33199;47.590;8.300;2022-10-16T15:39:31;18.10;73.30
30594;DHT22;33199;47.590;8.300;2022-10-16T15:41:57;18.10;73.30
30594;DHT22;33199;47.590;8.300;2022-10-16T15:44:22;18.10;73.30
30594;DHT22;33199;47.590;8.300;2022-10-16T15:46:50;18.10;73.30
30594;DHT22;33199;47.590;8.300;2022-10-16T15:49:19;18.20;73.40
30594;DHT22;33199;47.590;8.300;2022-10-16T15:51:45;18.20;73.40
30594;DHT22;33199;47.590;8.300;2022-10-16T15:54:11;18.20;74.10
30594;DHT22;33199;47.590;8.300;2022-10-16T15:56:37;18.10;73.30
30594;DHT22;33199;47.590;8.300;2022-10-16T15:59:03;18.10;73.20
30594;DHT22;33199;47.590;8.300;2022-10-16T16:01:31;18.20;73.30
30594;DHT22;33199;47.590;8.300;2022-10-16T16:03:57;18.20;73.40
30594;DHT22;33199;47.590;8.300;2022-10-16T16:06:22;18.10;73.30
30594;DHT22;33199;47.590;8.300;2022-10-16T16:08:50;18.20;73.30
30594;DHT22;33199;47.590;8.300;2022-10-16T16:11:16;18.20;73.30
30594;DHT22;33199;47.590;8.300;2022-10-16T16:13:43;18.20;73.30
30594;DHT22;33199;47.590;8.300;2022-10-16T16:16:11;18.10;73.30
30594;DHT22;33199;47.590;8.300;2022-10-16T16:18:37;18.20;73.40
30594;DHT22;33199;47.590;8.300;2022-10-16T16:21:03;18.20;73.30
30594;DHT22;33199;47.590;8.300;2022-10-16T16:23:29;18.20;73.30
30594;DHT22;33199;47.590;8.300;2022-10-16T16:26:28;18.20;73.30
30594;DHT22;33199;47.590;8.300;2022-10-16T16:28:57;18.20;73.30
30594;DHT22;33199;47.590;8.300;2022-10-16T16:31:25;18.20;73.30
30594;DHT22;33199;47.590;8.300;2022-10-16T16:33:51;18.20;73.30
30594;DHT22;33199;47.590;8.300;2022-10-16T16:36:17;18.20;73.40
30594;DHT22;33199;47.590;8.300;2022-10-16T16:38:44;18.20;73.40
30594;DHT22;33199;47.590;8.300;2022-10-16T16:41:18;18.20;73.30
30594;DHT22;33199;47.590;8.300;2022-10-16T16:43:45;18.20;73.40
30594;DHT22;33199;47.590;8.300;2022-10-16T16:46:11;18.20;73.30
30594;DHT22;33199;47.590;8.300;2022-10-16T16:48:37;18.20;73.30
30594;DHT22;33199;47.590;8.300;2022-10-16T16:51:12;18.20;73.20
30594;DHT22;33199;47.590;8.300;2022-10-16T16:53:41;18.20;73.10
30594;DHT22;33199;47.590;8.300;2022-10-16T16:56:07;18.20;73.10
30594;DHT22;33199;47.590;8.300;2022-10-16T16:58:33;18.20;73.20
30594;DHT22;33199;47.590;8.300;2022-10-16T17:01:00;18.20;73.10
30594;DHT22;33199;47.590;8.300;2022-10-16T17:03:32;18.20;73.00
30594;DHT22;33199;47.590;8.300;2022-10-16T17:06:02;18.20;73.10
30594;DHT22;33199;47.590;8.300;2022-10-16T17:08:30;18.20;73.10
30594;DHT22;33199;47.590;8.300;2022-10-16T17:10:57;18.20;73.10
30594;DHT22;33199;47.590;8.300;2022-10-16T17:13:23;18.20;73.10
30594;DHT22;33199;47.590;8.300;2022-10-16T17:15:50;18.20;73.10
30594;DHT22;33199;47.590;8.300;2022-10-16T17:18:16;18.20;73.10
30594;DHT22;33199;47.590;8.300;2022-10-16T17:20:44;18.20;73.10
30594;DHT22;33199;47.590;8.300;2022-10-16T17:23:10;18.20;73.10
30594;DHT22;33199;47.590;8.300;2022-10-16T17:25:39;18.20;73.10
30594;DHT22;33199;47.590;8.300;2022-10-16T17:28:06;18.20;73.10